Terminal Aerodrome Forecast
Issued by NWS Charleston, WV

Current Version | Previous Version | Graphics & Text | Print | Product List | Glossary On
Versions: 1 2 3 4 5 6 7 8 9 10 11 12 13 14 15 16 17 18 19 20
000
FTUS41 KRLX 241700 RRA
TAFPKB
TAF
KPKB 241749Z 2418/2518 16007G15KT P6SM BKN050
     FM242000 22018G42KT 3SM SHRA BR VCTS BKN035CB
     FM242200 23015G34KT 6SM SHRA OVC035
     FM250200 24013G27KT P6SM OVC025
     FM250400 23009G18KT P6SM OVC015
     FM251400 27012G18KT P6SM OVC025
     FM251600 27012G18KT P6SM BKN035=

USA.gov is the U.S. government's official web portal to all federal, state and local government web resources and services.